Time;durP1;ratioP1;P1;durP2;ratioP2;P2;SDS_P1;SDS_P2;PMS_P1;PMS_P2;Temp;Humidity;BMP_temperature;BMP_pressure;BME280_temperature;BME280_humidity;BME280_pressure;Samples;Min_cycle;Max_cycle;Signal;HPM_P1;HPM_P2
2022/08/31 00:04:29;;;;;;;1.20;1.10;;;14.90;99.90;;;;;;10479620;28;20201;-77
2022/08/31 00:09:51;;;;;;;2.10;1.27;;;14.90;99.90;;;;;;10516353;28;20500;-77
2022/08/31 00:15:16;;;;;;;2.65;1.65;;;14.90;99.90;;;;;;10483777;28;20193;-77
2022/08/31 00:20:38;;;;;;;1.55;1.10;;;14.90;99.90;;;;;;10483415;28;20540;-77
2022/08/31 00:25:59;;;;;;;2.67;1.48;;;14.80;99.90;;;;;;10460981;28;20437;-77
2022/08/31 00:31:21;;;;;;;1.98;1.20;;;14.80;99.90;;;;;;10426530;28;20210;-77
2022/08/31 00:36:46;;;;;;;1.67;1.30;;;14.70;99.90;;;;;;10426412;28;20227;-79
2022/08/31 00:42:08;;;;;;;1.60;1.15;;;14.70;99.90;;;;;;10441117;28;20195;-78
2022/08/31 00:47:30;;;;;;;2.05;1.45;;;14.80;99.90;;;;;;10441339;28;20555;-78
2022/08/31 00:52:57;;;;;;;1.60;1.20;;;14.80;99.90;;;;;;10439867;28;20194;-77
2022/08/31 00:58:19;;;;;;;1.90;1.50;;;14.70;99.90;;;;;;10440702;28;20202;-76
2022/08/31 01:03:40;;;;;;;2.13;1.35;;;14.80;99.90;;;;;;10474893;28;20280;-77
2022/08/31 01:09:05;;;;;;;3.25;1.42;;;14.70;99.90;;;;;;10507774;28;20473;-77
2022/08/31 01:14:26;;;;;;;1.85;1.20;;;14.70;99.90;;;;;;10435726;28;20202;-78
2022/08/31 01:20:12;;;;;;;2.13;1.70;;;14.80;99.90;;;;;;10424796;28;20513;-76
2022/08/31 01:25:35;;;;;;;2.15;1.42;;;14.70;99.90;;;;;;10441544;28;20232;-77
2022/08/31 01:30:57;;;;;;;1.90;1.20;;;14.70;99.90;;;;;;10465613;28;20251;-77
2022/08/31 01:36:20;;;;;;;2.20;1.20;;;14.80;99.90;;;;;;10465440;28;20358;-78
2022/08/31 01:41:42;;;;;;;2.10;1.25;;;14.90;99.90;;;;;;10480309;28;20193;-78
2022/08/31 01:47:04;;;;;;;2.90;1.20;;;14.90;99.90;;;;;;10465363;28;20284;-78
2022/08/31 01:52:28;;;;;;;1.80;1.20;;;14.90;99.90;;;;;;10464524;28;20203;-77
2022/08/31 01:57:50;;;;;;;2.40;1.27;;;14.90;99.90;;;;;;10464412;28;20200;-77
2022/08/31 02:03:46;;;;;;;1.20;1.10;;;15.00;99.90;;;;;;10426612;28;20276;-76
2022/08/31 02:09:08;;;;;;;1.67;1.02;;;15.00;99.90;;;;;;10475415;28;20234;-76
2022/08/31 02:14:30;;;;;;;3.92;1.38;;;15.00;99.90;;;;;;10431337;28;20509;-79
2022/08/31 02:19:51;;;;;;;1.40;1.02;;;15.00;99.90;;;;;;10433949;28;20204;-78
2022/08/31 02:25:13;;;;;;;3.25;1.25;;;15.00;99.90;;;;;;10433284;28;20234;-78
2022/08/31 02:30:35;;;;;;;2.33;1.30;;;14.90;99.90;;;;;;10419811;28;20228;-78
2022/08/31 02:35:56;;;;;;;3.28;1.38;;;14.90;99.90;;;;;;10418311;28;20210;-77
2022/08/31 02:41:19;;;;;;;3.70;1.30;;;14.80;99.90;;;;;;10436152;28;20561;-77
2022/08/31 02:46:41;;;;;;;1.80;1.05;;;14.60;99.90;;;;;;10408136;28;20235;-77
2022/08/31 02:52:22;;;;;;;2.75;1.23;;;14.50;99.90;;;;;;10435899;28;20193;-77
2022/08/31 02:57:43;;;;;;;1.98;1.13;;;14.50;99.90;;;;;;10426956;28;20205;-78
2022/08/31 03:03:05;;;;;;;2.33;1.23;;;14.40;99.90;;;;;;10455414;28;20204;-77
2022/08/31 03:08:27;;;;;;;1.98;1.20;;;14.40;99.90;;;;;;10526889;28;20234;-78
2022/08/31 03:13:49;;;;;;;2.85;1.15;;;14.20;99.90;;;;;;10486001;28;20362;-76
2022/08/31 03:19:10;;;;;;;3.22;1.33;;;14.20;99.90;;;;;;10470716;28;20217;-77
2022/08/31 03:24:32;;;;;;;3.00;1.13;;;14.10;99.90;;;;;;10447859;28;20460;-77
2022/08/31 03:29:54;;;;;;;1.88;1.00;;;14.10;99.90;;;;;;10429314;28;20492;-77
2022/08/31 03:35:18;;;;;;;1.90;1.10;;;;;;;;;;10442802;28;20491;-78
2022/08/31 03:40:41;;;;;;;2.10;1.20;;;14.20;99.90;;;;;;10442851;28;20198;-76
2022/08/31 03:46:03;;;;;;;3.03;1.70;;;14.10;99.90;;;;;;10442286;28;20237;-77
2022/08/31 03:51:26;;;;;;;1.83;1.38;;;14.10;99.90;;;;;;10428080;28;20224;-77
2022/08/31 03:56:47;;;;;;;2.10;1.23;;;13.90;99.90;;;;;;10442267;28;20204;-77
2022/08/31 04:02:09;;;;;;;2.17;1.25;;;;;;;;;;10442133;28;20581;-77
2022/08/31 04:07:49;;;;;;;2.00;1.55;;;13.90;99.90;;;;;;10441264;28;20234;-76
2022/08/31 04:13:29;;;;;;;2.95;1.70;;;13.90;99.90;;;;;;10482367;28;20209;-76
2022/08/31 04:19:19;;;;;;;2.72;1.52;;;13.90;99.90;;;;;;10484850;28;20385;-76
2022/08/31 04:24:54;;;;;;;2.80;1.58;;;13.90;99.90;;;;;;10458567;28;20257;-76
2022/08/31 04:30:16;;;;;;;4.63;1.75;;;13.90;99.90;;;;;;10440779;28;20274;-76
2022/08/31 04:35:42;;;;;;;3.35;1.98;;;13.90;99.90;;;;;;10440678;28;20202;-76
2022/08/31 04:41:05;;;;;;;3.88;2.10;;;14.00;99.90;;;;;;10426215;28;20202;-76
2022/08/31 04:46:28;;;;;;;3.65;2.00;;;14.10;99.90;;;;;;10440072;28;20433;-76
2022/08/31 04:51:49;;;;;;;2.72;1.48;;;14.10;99.90;;;;;;10426083;28;20192;-78
2022/08/31 04:57:10;;;;;;;2.95;1.60;;;14.10;99.90;;;;;;10439841;28;20564;-76
2022/08/31 05:02:32;;;;;;;2.13;1.50;;;14.10;99.90;;;;;;10457054;28;20196;-77
2022/08/31 05:08:02;;;;;;;2.70;1.42;;;14.20;99.90;;;;;;10426673;28;20221;-77
2022/08/31 05:13:24;;;;;;;2.90;1.60;;;14.30;99.90;;;;;;10471976;28;20305;-76
2022/08/31 05:18:48;;;;;;;2.72;1.50;;;14.40;99.90;;;;;;10480129;28;20247;-76
2022/08/31 05:24:13;;;;;;;4.13;1.60;;;14.60;99.90;;;;;;10460008;28;20605;-78
2022/08/31 05:29:34;;;;;;;4.35;2.10;;;14.60;99.90;;;;;;10439151;28;20251;-78
2022/08/31 05:35:18;;;;;;;2.47;1.52;;;14.70;99.90;;;;;;10439464;28;20196;-78
2022/08/31 05:40:40;;;;;;;3.33;1.35;;;14.80;99.90;;;;;;10439291;28;20207;-78
2022/08/31 05:46:05;;;;;;;8.25;1.80;;;14.90;99.90;;;;;;10438572;28;20206;-77
2022/08/31 05:51:31;;;;;;;1.00;0.90;;;15.00;99.90;;;;;;10423547;28;20214;-78
2022/08/31 05:56:55;;;;;;;3.50;1.70;;;15.20;99.90;;;;;;10423864;28;20199;-77
2022/08/31 06:02:16;;;;;;;3.03;1.40;;;15.30;99.90;;;;;;10452584;28;20396;-77
2022/08/31 06:07:38;;;;;;;3.15;1.40;;;15.40;99.90;;;;;;10519174;28;20227;-77
2022/08/31 06:13:04;;;;;;;2.58;1.65;;;15.60;99.90;;;;;;10471159;28;20402;-78
2022/08/31 06:18:25;;;;;;;2.85;1.45;;;15.80;99.90;;;;;;10478192;28;20202;-77
2022/08/31 06:23:50;;;;;;;3.45;1.33;;;16.10;99.90;;;;;;10460910;28;20234;-77
2022/08/31 06:29:13;;;;;;;3.40;1.30;;;16.80;99.90;;;;;;10421739;28;20226;-77
2022/08/31 06:34:35;;;;;;;2.65;1.40;;;18.10;99.90;;;;;;10436147;28;20486;-77
2022/08/31 06:39:59;;;;;;;1.92;1.00;;;20.00;97.90;;;;;;10436379;28;20192;-77
2022/08/31 06:45:36;;;;;;;2.05;1.08;;;21.30;99.90;;;;;;10436618;28;20208;-78
2022/08/31 06:51:37;;;;;;;1.77;0.85;;;22.00;82.40;;;;;;10416824;28;20201;-80
2022/08/31 06:56:58;;;;;;;3.53;1.38;;;23.10;66.20;;;;;;10432865;28;20507;-77
2022/08/31 07:02:48;;;;;;;9.27;4.22;;;23.60;56.50;;;;;;10301074;28;20214;-80
2022/08/31 07:08:10;;;;;;;3.67;2.13;;;24.30;45.70;;;;;;10337679;28;20234;-78
2022/08/31 07:13:31;;;;;;;13.05;8.02;;;24.20;39.30;;;;;;10333683;28;20213;-77
2022/08/31 07:18:56;;;;;;;7.13;3.28;;;24.10;39.80;;;;;;10346372;28;20210;-78
2022/08/31 07:24:22;;;;;;;6.25;3.88;;;24.10;37.00;;;;;;10296904;28;20238;-78
2022/08/31 07:29:44;;;;;;;16.83;11.13;;;23.50;39.00;;;;;;10297245;28;20238;-78
2022/08/31 07:35:08;;;;;;;25.25;13.95;;;23.50;40.00;;;;;;10294859;28;20249;-77
2022/08/31 07:46:19;;;;;;;28.50;15.02;;;23.70;37.10;;;;;;10442602;28;20228;-77
2022/08/31 07:51:54;;;;;;;28.70;15.30;;;22.40;41.90;;;;;;10428217;28;20220;-77
2022/08/31 07:57:42;;;;;;;6.45;3.45;;;21.70;50.20;;;;;;10427915;28;20197;-78
2022/08/31 08:03:10;;;;;;;3.08;2.13;;;22.40;48.50;;;;;;10453289;28;20211;-77
2022/08/31 08:08:54;;;;;;;15.18;8.35;;;22.60;48.90;;;;;;10525221;28;20556;-79
2022/08/31 08:14:38;;;;;;;11.98;6.82;;;24.20;44.10;;;;;;10480847;28;20387;-77
2022/08/31 08:20:29;;;;;;;8.23;4.78;;;24.70;37.00;;;;;;10397471;28;20203;-78
2022/08/31 08:25:50;;;;;;;1.65;1.17;;;25.70;30.10;;;;;;10397007;28;20239;-78
2022/08/31 08:31:21;;;;;;;2.58;1.17;;;26.00;24.70;;;;;;10383384;28;20507;-78
2022/08/31 08:36:42;;;;;;;16.23;8.10;;;26.70;23.10;;;;;;10369643;28;20205;-78
2022/08/31 08:42:07;;;;;;;8.55;4.22;;;27.90;20.90;;;;;;10396982;28;20201;-79
2022/08/31 08:47:35;;;;;;;22.02;10.40;;;28.40;15.90;;;;;;10396554;28;20531;-78
2022/08/31 08:53:02;;;;;;;2.60;1.20;;;28.30;15.80;;;;;;10396936;28;20204;-77
2022/08/31 08:58:26;;;;;;;4.68;1.38;;;28.50;14.80;;;;;;10425417;28;20207;-78
2022/08/31 09:04:10;;;;;;;1.70;1.20;;;29.00;12.40;;;;;;10476390;28;20258;-77
2022/08/31 09:10:17;;;;;;;3.20;2.03;;;29.20;10.80;;;;;;10514332;28;20228;-77
2022/08/31 09:15:53;;;;;;;1.27;0.70;;;29.80;9.50;;;;;;10439336;28;20185;-77
2022/08/31 09:21:24;;;;;;;1.48;1.27;;;29.80;8.00;;;;;;10424445;28;20284;-77
2022/08/31 09:27:16;;;;;;;1.88;1.20;;;29.90;7.50;;;;;;10438442;28;20239;-78
2022/08/31 09:32:44;;;;;;;5.90;3.10;;;28.40;9.90;;;;;;10424249;28;20204;-78
2022/08/31 09:38:10;;;;;;;12.23;5.97;;;26.00;13.50;;;;;;10424028;28;20200;-77
2022/08/31 09:43:36;;;;;;;9.65;5.55;;;24.40;13.70;;;;;;10438898;28;20203;-78
2022/08/31 09:49:02;;;;;;;7.93;3.35;;;23.40;16.10;;;;;;10438628;28;20401;-77
2022/08/31 10:00:14;;;;;;;2.50;1.50;;;26.80;13.50;;;;;;10438295;28;20188;-78
2022/08/31 10:05:42;;;;;;;5.95;1.55;;;27.90;11.70;;;;;;10485420;28;20504;-78
2022/08/31 10:11:19;;;;;;;1.10;0.80;;;26.50;13.40;;;;;;10501825;28;20230;-76
2022/08/31 10:16:46;;;;;;;3.72;2.15;;;25.90;13.00;;;;;;10479073;28;20198;-77
2022/08/31 10:22:24;;;;;;;2.53;1.20;;;26.40;12.60;;;;;;10463785;28;20266;-77
2022/08/31 10:27:50;;;;;;;5.13;2.13;;;27.90;11.70;;;;;;10443445;28;20262;-76
2022/08/31 10:33:21;;;;;;;2.55;1.10;;;26.60;9.20;;;;;;10437094;28;20425;-77
2022/08/31 10:38:45;;;;;;;0.50;0.50;;;26.40;10.10;;;;;;10435883;28;20254;-77
2022/08/31 10:44:22;;;;;;;4.90;0.70;;;27.60;8.10;;;;;;10422465;28;20223;-77
2022/08/31 10:49:44;;;;;;;3.95;2.42;;;28.50;8.50;;;;;;10435961;28;20270;-79
2022/08/31 10:55:16;;;;;;;0.88;0.80;;;29.30;7.40;;;;;;10435709;28;20259;-78
2022/08/31 11:00:55;;;;;;;1.90;0.80;;;29.40;6.00;;;;;;10438144;28;20539;-78
2022/08/31 11:06:22;;;;;;;5.85;2.83;;;29.90;4.80;;;;;;10506396;28;20211;-78
2022/08/31 11:12:08;;;;;;;13.73;7.32;;;30.10;5.30;;;;;;10480846;28;20214;-77
2022/08/31 11:18:11;;;;;;;3.05;2.25;;;30.00;3.40;;;;;;10479347;28;20191;-77
2022/08/31 11:23:35;;;;;;;3.80;2.22;;;29.20;3.50;;;;;;10412690;28;20486;-78
2022/08/31 11:29:11;;;;;;;1.92;1.20;;;28.70;3.30;;;;;;10426647;28;20274;-77
2022/08/31 11:34:46;;;;;;;3.55;2.60;;;29.50;3.50;;;;;;10440022;28;20211;-77
2022/08/31 11:40:10;;;;;;;6.78;2.63;;;29.70;4.30;;;;;;10396194;28;20527;-76
2022/08/31 11:45:33;;;;;;;2.28;0.98;;;29.60;1.50;;;;;;10426047;28;20215;-80
2022/08/31 11:50:54;;;;;;;9.27;3.55;;;29.70;1.30;;;;;;10439822;28;20208;-78
2022/08/31 11:56:34;;;;;;;2.97;1.00;;;30.10;2.50;;;;;;10409057;28;20407;-77
2022/08/31 12:01:58;;;;;;;1.73;0.70;;;29.70;3.10;;;;;;10454448;28;20196;-78
2022/08/31 12:07:26;;;;;;;1.23;0.60;;;28.80;2.70;;;;;;10521144;28;20228;-79
2022/08/31 12:13:17;;;;;;;0.93;0.77;;;28.90;2.80;;;;;;10492040;28;20204;-77
2022/08/31 12:25:29;;;;;;;1.30;0.55;;;26.90;7.20;;;;;;10470912;28;20267;-76
2022/08/31 12:30:53;;;;;;;1.05;0.70;;;25.40;9.20;;;;;;10440382;28;20247;-77
2022/08/31 12:36:18;;;;;;;2.90;1.33;;;24.60;11.90;;;;;;10441924;28;20471;-76
2022/08/31 12:41:44;;;;;;;5.40;1.55;;;24.20;14.50;;;;;;10441558;28;20197;-77
2022/08/31 12:47:38;;;;;;;3.70;2.22;;;23.90;15.20;;;;;;10440937;28;20220;-77
2022/08/31 12:53:21;;;;;;;2.20;0.90;;;23.70;14.10;;;;;;10396358;28;20209;-77
2022/08/31 12:59:03;;;;;;;2.50;0.80;;;24.10;14.80;;;;;;10382518;28;20378;-77
2022/08/31 13:04:26;;;;;;;0.95;0.75;;;24.80;14.50;;;;;;10410022;28;20295;-77
2022/08/31 13:10:13;;;;;;;1.30;0.52;;;25.40;13.10;;;;;;10433224;28;20229;-76
2022/08/31 13:15:41;;;;;;;3.72;0.82;;;25.00;13.20;;;;;;10354459;28;20245;-76
2022/08/31 13:21:06;;;;;;;1.30;0.70;;;24.60;14.90;;;;;;10340736;28;20212;-77
2022/08/31 13:26:27;;;;;;;0.77;0.70;;;24.40;15.30;;;;;;10374366;28;20236;-76
2022/08/31 13:31:50;;;;;;;1.88;0.77;;;23.90;15.70;;;;;;10439289;28;20192;-78
2022/08/31 13:37:17;;;;;;;0.45;0.43;;;;;;;;;;10439269;28;20197;-77
2022/08/31 13:42:50;;;;;;;3.58;0.80;;;23.50;13.80;;;;;;10438752;28;20377;-77
2022/08/31 13:48:30;;;;;;;1.40;0.88;;;23.50;15.10;;;;;;10438720;28;20232;-77
2022/08/31 13:53:51;;;;;;;0.73;0.63;;;22.90;18.60;;;;;;10437649;28;20200;-77
2022/08/31 13:59:28;;;;;;;0.80;0.80;;;22.40;19.80;;;;;;10438228;28;20239;-77
2022/08/31 14:10:29;;;;;;;2.35;1.20;;;21.90;22.30;;;;;;10509074;28;20239;-77
2022/08/31 14:16:00;;;;;;;1.85;1.38;;;21.80;22.80;;;;;;10477998;28;20246;-78
2022/08/31 14:21:30;;;;;;;3.08;1.52;;;21.80;24.00;;;;;;10478970;28;20245;-76
2022/08/31 14:26:51;;;;;;;1.90;1.45;;;21.90;23.00;;;;;;10450061;28;20546;-75
2022/08/31 14:32:12;;;;;;;3.63;0.90;;;22.10;23.60;;;;;;10436339;28;20264;-76
2022/08/31 14:37:34;;;;;;;2.08;1.00;;;22.30;23.20;;;;;;10437309;28;20194;-78
2022/08/31 14:42:56;;;;;;;1.35;0.90;;;22.10;23.20;;;;;;10436932;28;20400;-78
2022/08/31 14:48:17;;;;;;;1.38;0.85;;;22.00;24.30;;;;;;10436029;28;20212;-77
2022/08/31 14:53:39;;;;;;;1.27;0.80;;;21.80;24.90;;;;;;10436160;28;20199;-77
2022/08/31 14:59:13;;;;;;;1.70;0.98;;;21.90;25.70;;;;;;10421834;28;20279;-79
2022/08/31 15:04:35;;;;;;;1.60;1.00;;;21.80;26.80;;;;;;10485487;28;20501;-78
2022/08/31 15:09:58;;;;;;;1.48;0.90;;;21.90;26.70;;;;;;10495245;28;20487;-78
2022/08/31 15:15:20;;;;;;;1.27;1.10;;;21.90;25.60;;;;;;10476619;28;20203;-76
2022/08/31 15:20:42;;;;;;;2.90;1.67;;;21.90;25.40;;;;;;10477550;28;20392;-77
2022/08/31 15:26:06;;;;;;;2.75;1.92;;;22.00;25.90;;;;;;10455233;28;20294;-78
2022/08/31 15:31:28;;;;;;;2.13;1.35;;;22.10;25.30;;;;;;10435192;28;20205;-77
2022/08/31 15:36:54;;;;;;;1.23;0.95;;;22.10;23.40;;;;;;10436113;28;20501;-77
2022/08/31 15:42:20;;;;;;;0.60;0.60;;;21.80;20.90;;;;;;10435992;28;20208;-78
2022/08/31 15:53:24;;;;;;;1.10;0.90;;;21.60;22.30;;;;;;10435570;28;20197;-79
2022/08/31 15:58:47;;;;;;;2.13;0.80;;;21.40;35.20;;;;;;10435749;28;20201;-79
2022/08/31 16:04:14;;;;;;;2.15;0.70;;;21.20;22.50;;;;;;10481832;28;20205;-78
2022/08/31 16:09:43;;;;;;;1.08;0.90;;;;;;;;;;10522235;28;20223;-79
2022/08/31 16:15:08;;;;;;;2.40;1.75;;;;;;;;;;10441814;28;20268;-79
2022/08/31 16:20:30;;;;;;;2.72;1.88;;;20.80;49.50;;;;;;10442271;28;20205;-78
2022/08/31 16:25:54;;;;;;;1.65;1.50;;;;;;;;;;10442045;28;20449;-78
2022/08/31 16:31:15;;;;;;;1.88;1.10;;;20.50;42.80;;;;;;10440952;28;20231;-80
2022/08/31 16:36:36;;;;;;;1.83;0.90;;;20.70;41.70;;;;;;10441456;28;20426;-77
2022/08/31 16:41:59;;;;;;;1.13;0.93;;;;;;;;;;10441608;28;20529;-79
2022/08/31 16:47:21;;;;;;;1.52;1.08;;;;;;;;;;10440320;28;20229;-78
2022/08/31 16:52:43;;;;;;;2.42;1.10;;;;;;;;;;10440376;28;20239;-77
2022/08/31 16:58:04;;;;;;;5.70;1.58;;;20.10;54.60;;;;;;10425976;28;20381;-77
2022/08/31 17:03:25;;;;;;;4.50;2.60;;;19.80;34.80;;;;;;10470652;28;20199;-78
2022/08/31 17:08:51;;;;;;;4.07;2.20;;;;;;;;;;10522103;28;20221;-77
2022/08/31 17:14:42;;;;;;;3.08;1.00;;;19.30;67.60;;;;;;10477904;28;20411;-79
2022/08/31 17:20:04;;;;;;;1.63;0.98;;;;;;;;;;10481016;28;20230;-78
2022/08/31 17:25:25;;;;;;;2.05;1.33;;;;;;;;;;10464343;28;20248;-77
2022/08/31 17:30:47;;;;;;;1.52;1.05;;;18.90;60.20;;;;;;10439619;28;20236;-77
2022/08/31 17:36:09;;;;;;;2.30;1.63;;;;;;;;;;10438290;28;20223;-78
2022/08/31 17:41:32;;;;;;;3.58;1.85;;;;;;;;;;10438249;28;20205;-78
2022/08/31 17:46:55;;;;;;;2.90;2.17;;;;;;;;;;10439042;28;20361;-78
2022/08/31 17:52:19;;;;;;;2.00;1.58;;;;;;;;;;10437857;28;20188;-77
2022/08/31 17:57:41;;;;;;;2.28;1.63;;;;;;;;;;10423803;28;20196;-78
2022/08/31 18:03:02;;;;;;;3.90;1.30;;;;;;;;;;10462487;28;20403;-77
2022/08/31 18:08:25;;;;;;;1.92;1.30;;;;;;;;;;10520695;28;20218;-77
2022/08/31 18:13:46;;;;;;;2.90;1.60;;;;;;;;;;10479884;28;20217;-77
2022/08/31 18:19:11;;;;;;;3.25;2.30;;;;;;;;;;10464305;28;20275;-78
2022/08/31 18:24:34;;;;;;;4.90;3.50;;;;;;;;;;10441375;28;20229;-78
2022/08/31 18:29:57;;;;;;;5.97;3.63;;;;;;;;;;10421525;28;20244;-77
2022/08/31 18:35:19;;;;;;;11.20;5.60;;;;;;;;;;10436259;28;20499;-78
2022/08/31 18:46:24;;;;;;;10.30;6.00;;;;;;;;;;10436000;28;20402;-77
2022/08/31 18:51:46;;;;;;;14.30;7.40;;;;;;;;;;10435841;28;20549;-77
2022/08/31 18:57:08;;;;;;;13.77;8.57;;;;;;;;;;10435560;28;20231;-76
2022/08/31 19:02:31;;;;;;;15.60;8.23;;;;;;;;;;10453330;28;20509;-77
2022/08/31 19:07:52;;;;;;;11.13;6.22;;;;;;;;;;10438123;28;20281;-77
2022/08/31 19:13:14;;;;;;;8.20;5.47;;;;;;;;;;10466788;28;20203;-78
2022/08/31 19:18:36;;;;;;;8.75;5.00;;;;;;;;;;10476348;28;20309;-77
2022/08/31 19:23:59;;;;;;;6.45;4.22;;;;;;;;;;10458803;28;20227;-77
2022/08/31 19:29:24;;;;;;;10.98;5.20;;;;;;;;;;10435121;28;20223;-76
2022/08/31 19:34:48;;;;;;;9.13;5.50;;;;;;;;;;10436107;28;20375;-77
2022/08/31 19:40:15;;;;;;;9.68;4.15;;;;;;;;;;10441611;28;20192;-78
2022/08/31 19:45:38;;;;;;;4.55;3.30;;;;;;;;;;10443749;28;20196;-76
2022/08/31 19:51:07;;;;;;;5.32;3.30;;;17.60;99.90;;;;;;10443629;28;20227;-76
2022/08/31 19:56:29;;;;;;;6.00;3.10;;;;;;;;;;10442103;28;20275;-76
2022/08/31 20:01:53;;;;;;;5.10;3.35;;;;;;;;;;10453748;28;20208;-77
2022/08/31 20:07:15;;;;;;;4.63;2.90;;;;;;;;;;10521734;28;20217;-77
2022/08/31 20:12:41;;;;;;;5.28;2.60;;;;;;;;;;10493987;28;20203;-77
2022/08/31 20:18:06;;;;;;;3.53;2.10;;;;;;;;;;10483813;28;20194;-77
2022/08/31 20:23:29;;;;;;;2.83;1.85;;;;;;;;;;10483432;28;20237;-76
2022/08/31 20:28:51;;;;;;;2.47;1.58;;;;;;;;;;10442228;28;20226;-76
2022/08/31 20:34:13;;;;;;;2.63;1.88;;;;;;;;;;10442124;28;20240;-76
2022/08/31 20:39:40;;;;;;;4.18;2.17;;;;;;;;;;10441852;28;20199;-75
2022/08/31 20:45:02;;;;;;;5.65;2.65;;;;;;;;;;10441433;28;20350;-77
2022/08/31 20:50:26;;;;;;;4.40;2.63;;;;;;;;;;10440235;28;20289;-77
2022/08/31 20:55:49;;;;;;;7.25;3.17;;;;;;;;;;10439989;28;20199;-76
2022/08/31 21:01:12;;;;;;;11.20;5.13;;;;;;;;;;10446419;28;20206;-76
2022/08/31 21:06:37;;;;;;;5.18;2.97;;;;;;;;;;10514151;28;20269;-76
2022/08/31 21:12:00;;;;;;;2.83;1.98;;;;;;;;;;10496909;28;20537;-76
2022/08/31 21:17:22;;;;;;;3.60;2.10;;;;;;;;;;10480412;28;20274;-76
2022/08/31 21:22:43;;;;;;;3.45;1.92;;;;;;;;;;10480028;28;20362;-76
2022/08/31 21:28:07;;;;;;;2.72;1.45;;;;;;;;;;10442410;28;20512;-75
2022/08/31 21:33:29;;;;;;;3.08;1.50;;;;;;;;;;10438932;28;20377;-76
2022/08/31 21:38:51;;;;;;;2.67;1.20;;;;;;;;;;10424629;28;20225;-77
2022/08/31 21:44:15;;;;;;;1.75;1.23;;;;;;;;;;10438008;28;20490;-78
2022/08/31 21:49:37;;;;;;;2.65;1.63;;;;;;;;;;10437997;28;20530;-75
2022/08/31 21:55:04;;;;;;;2.85;1.63;;;;;;;;;;10438596;28;20262;-75
2022/08/31 22:00:28;;;;;;;2.45;1.50;;;;;;;;;;10423230;28;20206;-76
2022/08/31 22:05:49;;;;;;;4.78;1.33;;;;;;;;;;10490353;28;20422;-75
2022/08/31 22:11:13;;;;;;;3.00;1.50;;;;;;;;;;10501413;28;20254;-74
2022/08/31 22:16:36;;;;;;;4.35;1.80;;;15.90;99.90;;;;;;10450343;28;20269;-77
2022/08/31 22:21:57;;;;;;;4.97;1.60;;;15.70;99.90;;;;;;10478435;28;20233;-78
2022/08/31 22:27:20;;;;;;;1.65;1.33;;;15.70;99.90;;;;;;10432758;28;20243;-75
2022/08/31 22:32:43;;;;;;;2.50;1.50;;;15.60;99.90;;;;;;10422875;28;20248;-76
2022/08/31 22:38:06;;;;;;;4.95;1.20;;;15.50;99.90;;;;;;10437227;28;20266;-76
2022/08/31 22:43:27;;;;;;;7.00;2.45;;;15.40;99.90;;;;;;10437563;28;20215;-76
2022/08/31 22:48:49;;;;;;;3.35;1.80;;;15.30;99.90;;;;;;10437213;28;20226;-76
2022/08/31 22:54:10;;;;;;;2.97;1.75;;;15.30;99.90;;;;;;10408058;28;20506;-75
2022/08/31 22:59:31;;;;;;;3.13;1.90;;;15.30;99.90;;;;;;10436278;28;20195;-77
2022/08/31 23:04:53;;;;;;;2.45;1.35;;;15.20;99.90;;;;;;10467250;28;20223;-75
2022/08/31 23:10:17;;;;;;;2.42;1.35;;;15.10;99.90;;;;;;10507724;28;20225;-76
2022/08/31 23:15:39;;;;;;;2.00;1.40;;;15.10;99.90;;;;;;10483633;28;20547;-76
2022/08/31 23:21:01;;;;;;;2.17;1.23;;;14.90;99.90;;;;;;10471178;28;20247;-75
2022/08/31 23:26:24;;;;;;;2.03;1.40;;;14.90;99.90;;;;;;10461418;28;20449;-75
2022/08/31 23:31:47;;;;;;;2.53;1.23;;;14.90;99.90;;;;;;10443492;28;20227;-78
2022/08/31 23:37:10;;;;;;;2.30;1.20;;;14.90;99.90;;;;;;10443031;28;20207;-75
2022/08/31 23:42:32;;;;;;;2.65;1.55;;;14.90;99.90;;;;;;10442786;28;20209;-75
2022/08/31 23:47:56;;;;;;;3.88;1.70;;;14.80;99.90;;;;;;10442923;28;20201;-75
2022/08/31 23:53:18;;;;;;;4.22;1.67;;;14.80;99.90;;;;;;10442360;28;20230;-76
2022/08/31 23:58:40;;;;;;;2.38;1.48;;;14.60;99.90;;;;;;10428546;28;20205;-76
